Time;durP1;ratioP1;P1;durP2;ratioP2;P2;SDS_P1;SDS_P2;PMS_P1;PMS_P2;Temp;Humidity;BMP_temperature;BMP_pressure;BME280_temperature;BME280_humidity;BME280_pressure;Samples;Min_cycle;Max_cycle;Signal;HPM_P1;HPM_P2
2024/04/13 00:01:39;;;;;;;2.00;1.70;;;;;;;21.57;51.88;101871.67;2312495;77;51553;-76
2024/04/13 00:04:41;;;;;;;1.57;1.40;;;;;;;21.58;51.89;101877.89;2312347;77;51630;-76
2024/04/13 00:07:43;;;;;;;2.08;1.87;;;;;;;21.58;51.96;101871.16;2312128;77;51527;-76
2024/04/13 00:10:45;;;;;;;1.67;1.57;;;;;;;21.56;51.94;101874.56;2256442;77;51371;-76
2024/04/13 00:13:49;;;;;;;3.20;1.90;;;;;;;21.56;51.88;101885.33;2306987;76;52504;-76
2024/04/13 00:16:51;;;;;;;2.30;1.60;;;;;;;21.57;51.91;101889.69;2312268;76;50554;-76
2024/04/13 00:19:54;;;;;;;1.75;1.65;;;;;;;21.57;51.98;101882.95;2306992;76;53315;-76
2024/04/13 00:22:56;;;;;;;2.27;1.40;;;;;;;21.56;52.00;101871.87;2306948;76;50983;-76
2024/04/13 00:25:58;;;;;;;2.08;1.85;;;;;;;21.55;51.90;101868.31;2312201;77;51449;-76
2024/04/13 00:29:00;;;;;;;2.10;1.70;;;;;;;21.57;51.90;101869.49;2281238;77;50328;-76
2024/04/13 00:32:03;;;;;;;1.65;1.50;;;;;;;21.56;51.89;101867.83;2312238;77;51452;-77
2024/04/13 00:35:06;;;;;;;2.87;1.75;;;;;;;21.56;51.83;101865.13;2306589;76;50336;-77
2024/04/13 00:38:09;;;;;;;1.62;1.52;;;;;;;21.57;51.79;101870.84;2281050;77;51010;-77
2024/04/13 00:41:12;;;;;;;3.30;2.00;;;;;;;21.56;51.77;101867.83;2312421;77;50587;-78
2024/04/13 00:44:14;;;;;;;2.30;1.98;;;;;;;21.56;51.80;101871.87;2312291;77;51496;-77
2024/04/13 00:47:17;;;;;;;2.42;1.85;;;;;;;21.56;51.73;101864.62;2306116;76;49481;-77
2024/04/13 00:50:19;;;;;;;2.05;1.50;;;;;;;21.55;51.74;101862.09;2312360;77;50243;-77
2024/04/13 00:53:21;;;;;;;2.22;1.60;;;;;;;21.55;51.78;101856.70;2306876;76;50509;-77
2024/04/13 00:56:23;;;;;;;1.67;1.47;;;;;;;21.55;51.76;101849.97;2312021;77;51584;-77
2024/04/13 00:59:25;;;;;;;2.80;1.80;;;;;;;21.55;51.65;101847.28;2312413;77;51513;-77
2024/04/13 01:02:28;;;;;;;2.47;1.45;;;;;;;21.56;51.68;101846.28;2306846;77;50993;-77
2024/04/13 01:05:33;;;;;;;1.92;1.70;;;;;;;21.57;51.75;101860.06;2312299;77;50682;-77
2024/04/13 01:08:35;;;;;;;2.42;1.70;;;;;;;21.56;51.62;101848.46;2307069;77;51477;-76
2024/04/13 01:11:38;;;;;;;1.95;1.65;;;;;;;21.56;51.63;101842.23;2280797;77;49555;-77
2024/04/13 01:14:41;;;;;;;1.90;1.60;;;;;;;21.55;51.59;101854.84;2306846;76;51516;-77
2024/04/13 01:17:43;;;;;;;2.25;1.60;;;;;;;21.56;51.58;101851.66;2312330;77;51434;-77
2024/04/13 01:20:45;;;;;;;2.52;1.60;;;;;;;21.54;51.57;101857.22;2307009;77;50438;-76
2024/04/13 01:23:49;;;;;;;1.90;1.80;;;;;;;21.55;51.50;101849.45;2312403;77;50291;-76
2024/04/13 01:26:52;;;;;;;1.82;1.52;;;;;;;21.56;51.47;101847.63;2280537;77;52651;-76
2024/04/13 01:29:54;;;;;;;1.62;1.50;;;;;;;21.56;51.44;101843.59;2312324;77;50350;-76
2024/04/13 01:32:56;;;;;;;1.70;1.60;;;;;;;21.56;51.45;101842.23;2312371;77;50217;-77
2024/04/13 01:35:59;;;;;;;2.25;1.62;;;;;;;21.55;51.48;101841.89;2312279;77;50308;-77
2024/04/13 01:39:01;;;;;;;2.17;1.60;;;;;;;21.53;51.50;101845.61;2312300;77;50194;-77
2024/04/13 01:42:03;;;;;;;1.60;1.50;;;;;;;21.55;51.47;101846.76;2312282;77;50337;-77
2024/04/13 01:45:06;;;;;;;1.60;1.50;;;;;;;21.53;51.49;101845.61;2256133;77;51563;-77
2024/04/13 01:48:08;;;;;;;1.98;1.55;;;;;;;21.55;51.46;101847.28;2256476;77;50358;-78
2024/04/13 01:51:10;;;;;;;1.85;1.65;;;;;;;21.52;51.55;101843.91;2302129;76;50907;-77
2024/04/13 01:54:12;;;;;;;1.92;1.60;;;;;;;21.52;51.52;101849.30;2301921;76;51513;-78
2024/04/13 01:57:15;;;;;;;2.62;1.55;;;;;;;21.53;51.53;101853.69;2296190;76;53890;-77
2024/04/13 02:00:18;;;;;;;1.87;1.75;;;;;;;21.53;51.54;101860.42;2270698;77;49409;-78
2024/04/13 02:03:21;;;;;;;2.22;1.50;;;;;;;21.54;51.51;101863.95;2246760;77;50736;-79
2024/04/13 02:06:24;;;;;;;1.70;1.50;;;;;;;21.53;51.54;101857.73;2271333;77;51538;-77
2024/04/13 02:09:26;;;;;;;1.77;1.67;;;;;;;21.52;51.50;101854.68;2301943;77;50299;-78
2024/04/13 02:12:28;;;;;;;1.77;1.67;;;;;;;21.53;51.47;101859.07;2301897;77;50395;-77
2024/04/13 02:15:30;;;;;;;1.70;1.32;;;;;;;21.54;51.45;101859.91;2296140;77;51755;-77
2024/04/13 02:18:32;;;;;;;1.70;1.60;;;;;;;21.53;51.41;101859.59;2271112;77;51517;-78
2024/04/13 02:21:35;;;;;;;1.72;1.55;;;;;;;21.53;51.43;101863.11;2246557;77;51445;-77
2024/04/13 02:24:39;;;;;;;2.22;1.72;;;;;;;21.53;51.39;101867.66;2270657;77;51319;-78
2024/04/13 02:27:41;;;;;;;2.27;1.50;;;;;;;21.52;51.38;101864.11;2301758;77;51522;-78
2024/04/13 02:30:44;;;;;;;1.50;1.40;;;;;;;21.52;51.36;101869.49;2301871;77;50349;-77
2024/04/13 02:33:46;;;;;;;1.65;1.55;;;;;;;21.53;51.34;101859.59;2246606;77;51461;-78
2024/04/13 02:36:48;;;;;;;1.90;1.50;;;;;;;21.51;51.34;101866.48;2270717;77;51431;-78
2024/04/13 02:39:51;;;;;;;2.17;1.60;;;;;;;21.52;51.33;101865.97;2296562;76;49463;-78
2024/04/13 02:42:53;;;;;;;2.00;1.57;;;;;;;21.51;51.32;101867.83;2301848;77;51487;-77
2024/04/13 02:45:55;;;;;;;1.65;1.55;;;;;;;21.51;51.34;101867.83;2270960;77;50714;-78
2024/04/13 02:48:58;;;;;;;1.60;1.50;;;;;;;21.51;51.33;101869.17;2296493;77;50916;-77
2024/04/13 02:52:00;;;;;;;2.40;2.02;;;;;;;21.51;51.34;101858.91;2285173;76;51470;-78
2024/04/13 02:55:04;;;;;;;1.67;1.52;;;;;;;21.51;51.32;101857.05;2271307;78;51470;-77
2024/04/13 02:58:06;;;;;;;1.80;1.70;;;;;;;21.51;51.32;101850.83;2271505;78;50613;-78
2024/04/13 03:01:08;;;;;;;1.62;1.52;;;;;;;21.50;51.31;101850.00;2271473;78;51438;-78
2024/04/13 03:04:10;;;;;;;2.22;1.87;;;;;;;21.50;51.31;101845.96;2247969;78;51656;-78
2024/04/13 03:07:13;;;;;;;1.35;1.22;;;;;;;21.49;51.31;101836.18;2272912;77;50642;-77
2024/04/13 03:10:15;;;;;;;1.50;1.35;;;;;;;21.51;51.26;101838.20;2271389;78;51474;-78
2024/04/13 03:13:17;;;;;;;1.70;1.60;;;;;;;21.50;51.28;101844.61;2247771;78;51856;-78
2024/04/13 03:16:21;;;;;;;1.95;1.65;;;;;;;21.49;51.25;101844.27;2272976;78;50265;-77
2024/04/13 03:19:24;;;;;;;1.95;1.60;;;;;;;21.49;51.25;101841.56;2273121;78;51541;-76
2024/04/13 03:22:26;;;;;;;1.50;1.40;;;;;;;21.49;51.24;101842.91;2271412;78;52282;-76
2024/04/13 03:25:28;;;;;;;2.15;1.95;;;;;;;21.49;51.25;101839.39;2271184;78;50669;-76
2024/04/13 03:28:33;;;;;;;1.72;1.42;;;;;;;21.49;51.28;101835.35;2247847;78;50999;-77
2024/04/13 03:31:35;;;;;;;1.95;1.50;;;;;;;21.49;51.27;101834.00;2271596;78;51604;-77
2024/04/13 03:34:38;;;;;;;1.65;1.55;;;;;;;21.48;51.28;101839.06;2271550;78;51498;-77
2024/04/13 03:37:40;;;;;;;1.95;1.62;;;;;;;21.48;51.29;101839.91;2247781;78;49618;-77
2024/04/13 03:40:44;;;;;;;1.80;1.45;;;;;;;21.47;51.27;101836.86;2273017;78;49993;-77
2024/04/13 03:43:46;;;;;;;1.65;1.40;;;;;;;21.47;51.29;101840.89;2271709;78;22613;-77
2024/04/13 03:46:48;;;;;;;1.65;1.50;;;;;;;21.48;51.28;101843.11;2271269;78;51457;-77
2024/04/13 03:49:50;;;;;;;2.17;1.62;;;;;;;21.48;51.25;101851.19;2248103;78;51402;-77
2024/04/13 03:52:53;;;;;;;2.90;1.70;;;;;;;21.47;51.21;101846.28;2252330;77;50114;-77
2024/04/13 03:55:55;;;;;;;1.72;1.52;;;;;;;21.47;51.21;101843.59;2252368;77;51516;-77
2024/04/13 03:58:57;;;;;;;1.57;1.47;;;;;;;21.48;51.19;101849.84;2285295;77;50306;-77
2024/04/13 04:02:00;;;;;;;1.65;1.47;;;;;;;21.46;51.23;101844.61;2277889;77;49516;-78
2024/04/13 04:05:04;;;;;;;1.85;1.52;;;;;;;21.47;51.21;101838.72;2277753;77;51535;-78
2024/04/13 04:08:07;;;;;;;1.65;1.40;;;;;;;21.47;51.18;101838.72;2252320;77;51680;-77
2024/04/13 04:11:09;;;;;;;2.27;1.70;;;;;;;21.46;51.18;101838.39;2228778;77;51503;-76
2024/04/13 04:14:11;;;;;;;1.70;1.52;;;;;;;21.46;51.15;101837.88;2285637;77;50628;-77
2024/04/13 04:17:14;;;;;;;2.12;1.52;;;;;;;21.46;51.15;101839.23;2277856;77;49387;-77
2024/04/13 04:20:16;;;;;;;2.30;1.57;;;;;;;21.45;51.16;101836.22;2285416;77;50297;-77
2024/04/13 04:23:18;;;;;;;1.40;1.30;;;;;;;21.45;51.16;101841.59;2277789;77;50563;-77
2024/04/13 04:26:20;;;;;;;1.67;1.40;;;;;;;21.45;51.16;101842.95;2252164;77;50892;-78
2024/04/13 04:29:22;;;;;;;1.55;1.45;;;;;;;21.45;51.22;101839.39;2285411;77;51568;-77
2024/04/13 04:32:25;;;;;;;1.80;1.52;;;;;;;21.45;51.18;101840.25;2285423;77;51424;-77
2024/04/13 04:35:27;;;;;;;1.82;1.50;;;;;;;21.45;51.17;101840.25;2285154;77;50325;-77
2024/04/13 04:38:29;;;;;;;1.60;1.50;;;;;;;21.46;51.17;101837.05;2285262;77;51511;-77
2024/04/13 04:41:31;;;;;;;1.55;1.45;;;;;;;21.46;51.19;101835.70;2252493;77;49285;-77
2024/04/13 04:44:33;;;;;;;2.10;1.60;;;;;;;21.45;51.21;101846.12;2228460;77;50321;-77
2024/04/13 04:47:36;;;;;;;1.60;1.50;;;;;;;21.45;51.20;101841.59;2228316;77;50379;-77
2024/04/13 04:50:38;;;;;;;1.77;1.45;;;;;;;21.45;51.18;101845.64;2252359;77;49553;-77
2024/04/13 04:53:40;;;;;;;1.98;1.52;;;;;;;21.44;51.19;101835.03;2292047;77;50655;-77
2024/04/13 04:56:42;;;;;;;1.50;1.40;;;;;;;21.44;51.11;101837.20;2263063;77;51511;-77
2024/04/13 04:59:44;;;;;;;1.50;1.40;;;;;;;21.44;51.13;101842.59;2294174;77;51487;-77
2024/04/13 05:02:47;;;;;;;3.70;1.65;;;;;;;21.45;51.16;101838.91;2294220;76;51385;-77
2024/04/13 05:05:49;;;;;;;1.77;1.57;;;;;;;21.45;51.15;101838.91;2288598;76;49511;-76
2024/04/13 05:08:51;;;;;;;1.87;1.50;;;;;;;21.45;51.17;101846.98;2294146;77;50342;-76
2024/04/13 05:11:53;;;;;;;1.67;1.55;;;;;;;21.45;51.16;101841.59;2263257;77;50676;-77
2024/04/13 05:14:55;;;;;;;2.92;1.60;;;;;;;21.45;51.15;101845.64;2263113;77;50902;-77
2024/04/13 05:17:58;;;;;;;1.70;1.60;;;;;;;21.44;51.23;101844.45;2294037;77;50030;-76
2024/04/13 05:21:00;;;;;;;2.55;1.67;;;;;;;21.45;51.20;101847.47;2294087;77;50715;-77
2024/04/13 05:24:03;;;;;;;1.57;1.47;;;;;;;21.45;51.25;101848.81;2294013;77;49957;-76
2024/04/13 05:27:06;;;;;;;2.58;1.50;;;;;;;21.44;51.19;101845.29;2238581;77;50582;-76
2024/04/13 05:30:10;;;;;;;1.77;1.60;;;;;;;21.44;51.17;101849.33;2263443;77;50179;-76
2024/04/13 05:33:12;;;;;;;1.82;1.70;;;;;;;21.44;51.20;101848.49;2239333;77;50309;-77
2024/04/13 05:36:14;;;;;;;1.98;1.50;;;;;;;21.45;51.17;101850.16;2294017;77;50658;-77
2024/04/13 05:39:17;;;;;;;2.45;1.45;;;;;;;21.45;51.21;101852.85;2288375;77;50959;-76
2024/04/13 05:42:20;;;;;;;1.52;1.42;;;;;;;21.45;51.19;101851.02;2294174;76;51623;-77
2024/04/13 05:45:22;;;;;;;1.57;1.42;;;;;;;21.45;51.20;101846.98;2294074;77;50642;-77
2024/04/13 05:48:24;;;;;;;2.05;1.55;;;;;;;21.44;51.20;101845.29;2294288;77;51473;-78
2024/04/13 05:51:27;;;;;;;1.67;1.52;;;;;;;21.45;51.21;101851.50;2263514;77;50354;-78
2024/04/13 05:54:29;;;;;;;1.90;1.72;;;;;;;21.45;51.23;101853.72;2269921;77;50993;-77
2024/04/13 05:57:32;;;;;;;1.47;1.37;;;;;;;21.44;51.21;101857.91;2296556;76;51379;-77
2024/04/13 06:00:34;;;;;;;2.10;1.62;;;;;;;21.46;51.23;101860.77;2302241;77;51514;-77
2024/04/13 06:03:38;;;;;;;1.62;1.52;;;;;;;21.45;51.28;101865.84;2270910;77;51574;-77
2024/04/13 06:06:41;;;;;;;1.60;1.40;;;;;;;21.46;51.27;101862.12;2302144;77;24691;-77
2024/04/13 06:09:43;;;;;;;1.40;1.30;;;;;;;21.44;51.33;101854.71;2302070;77;50475;-78
2024/04/13 06:12:46;;;;;;;2.20;1.40;;;;;;;21.46;51.34;101851.34;2302223;77;50669;-78
2024/04/13 06:15:48;;;;;;;1.50;1.40;;;;;;;21.47;51.33;101845.45;2301882;77;50286;-77
2024/04/13 06:18:51;;;;;;;1.47;1.32;;;;;;;21.46;51.37;101847.31;2270895;77;51458;-77
2024/04/13 06:21:53;;;;;;;1.47;1.30;;;;;;;21.46;51.37;101845.96;2296549;77;51376;-78
2024/04/13 06:24:56;;;;;;;1.92;1.32;;;;;;;21.47;51.42;101850.83;2301979;77;50277;-78
2024/04/13 06:27:58;;;;;;;1.98;1.57;;;;;;;21.47;51.43;101862.44;2296541;77;51589;-77
2024/04/13 06:31:01;;;;;;;2.17;1.57;;;;;;;21.46;51.49;101859.42;2296645;77;50601;-79
2024/04/13 06:34:03;;;;;;;1.57;1.47;;;;;;;21.47;51.58;101863.78;2296764;76;51397;-78
2024/04/13 06:37:06;;;;;;;1.80;1.65;;;;;;;21.47;51.59;101859.75;2301795;77;51477;-78
2024/04/13 06:40:10;;;;;;;1.32;1.10;;;;;;;21.47;51.71;101869.69;2271407;77;50644;-77
2024/04/13 06:43:13;;;;;;;1.30;1.20;;;;;;;21.46;51.75;101868.84;2271574;77;50035;-76
2024/04/13 06:46:15;;;;;;;1.70;1.40;;;;;;;21.49;51.71;101860.93;2296724;76;51411;-78
2024/04/13 06:49:18;;;;;;;1.42;1.32;;;;;;;21.47;51.69;101847.63;2302382;77;51272;-78
2024/04/13 06:52:20;;;;;;;1.17;1.10;;;;;;;21.47;51.68;101832.81;2271104;77;50098;-78
2024/04/13 06:55:22;;;;;;;1.55;1.32;;;;;;;21.48;51.69;101830.48;2296579;77;51824;-77
2024/04/13 06:58:24;;;;;;;1.57;1.47;;;;;;;21.48;51.78;101835.03;2302046;77;52276;-77
2024/04/13 07:01:27;;;;;;;1.45;1.35;;;;;;;21.49;51.85;101834.84;2270970;77;51421;-77
2024/04/13 07:04:29;;;;;;;1.52;1.40;;;;;;;21.48;51.92;101824.25;2301889;76;50563;-76
2024/04/13 07:07:32;;;;;;;1.30;1.20;;;;;;;21.49;52.12;101818.67;2301628;77;50213;-77
2024/04/13 07:10:34;;;;;;;1.70;1.35;;;;;;;21.50;52.17;101825.77;2270877;77;50920;-77
2024/04/13 07:13:37;;;;;;;1.77;1.30;;;;;;;21.51;52.26;101825.25;2302090;77;50371;-78
2024/04/13 07:16:39;;;;;;;1.60;1.50;;;;;;;21.51;52.59;101834.67;2271114;77;50240;-77
2024/04/13 07:19:41;;;;;;;1.70;1.42;;;;;;;21.50;52.74;101825.77;2302233;77;50639;-77
2024/04/13 07:22:43;;;;;;;1.50;1.40;;;;;;;21.52;52.76;101816.98;2302199;77;50806;-77
2024/04/13 07:25:45;;;;;;;1.70;1.60;;;;;;;21.53;52.75;101813.80;2296536;77;51592;-77
2024/04/13 07:28:48;;;;;;;1.50;1.30;;;;;;;21.52;52.81;101810.25;2302345;77;51464;-78
2024/04/13 07:31:50;;;;;;;1.50;1.37;;;;;;;21.54;52.87;101811.43;2302252;77;51459;-77
2024/04/13 07:34:52;;;;;;;2.42;1.35;;;;;;;21.55;52.91;101809.57;2296412;77;50873;-78
2024/04/13 07:37:54;;;;;;;1.85;1.50;;;;;;;21.56;52.92;101807.23;2296669;76;51462;-78
2024/04/13 07:40:56;;;;;;;1.82;1.52;;;;;;;21.56;53.05;101810.75;2302329;77;51571;-78
2024/04/13 07:43:59;;;;;;;1.45;1.32;;;;;;;21.58;53.01;101810.56;2302390;77;52451;-77
2024/04/13 07:47:01;;;;;;;1.40;1.30;;;;;;;21.58;53.00;101802.00;2302156;77;50270;-77
2024/04/13 07:50:04;;;;;;;1.42;1.32;;;;;;;21.57;53.05;101788.19;2296534;76;51001;-78
2024/04/13 07:53:06;;;;;;;1.57;1.47;;;;;;;21.57;53.05;101795.43;2244930;76;50629;-77
2024/04/13 07:56:08;;;;;;;1.47;1.37;;;;;;;21.57;53.12;101796.27;2271488;78;51500;-77
2024/04/13 07:59:10;;;;;;;2.00;1.27;;;;;;;21.57;53.12;101795.43;2248080;78;50931;-76
2024/04/13 08:02:12;;;;;;;1.30;1.20;;;;;;;21.58;53.09;101799.79;2271554;78;51414;-77
2024/04/13 08:05:15;;;;;;;1.42;1.32;;;;;;;21.58;53.05;101803.83;2271294;77;50315;-77
2024/04/13 08:08:17;;;;;;;1.30;1.20;;;;;;;21.59;53.02;101798.80;2224310;78;51507;-77
2024/04/13 08:11:19;;;;;;;1.82;1.50;;;;;;;21.61;53.01;101803.50;2271872;78;50394;-77
2024/04/13 08:14:21;;;;;;;1.82;1.52;;;;;;;21.62;52.96;101799.27;2273640;77;51355;-78
2024/04/13 08:17:26;;;;;;;1.92;1.50;;;;;;;21.62;52.96;101799.78;2223986;78;50737;-77
2024/04/13 08:20:27;;;;;;;3.02;1.70;;;;;;;21.65;52.95;101798.08;2272052;77;22431;-77
2024/04/13 08:23:29;;;;;;;2.20;1.85;;;;;;;21.64;52.81;101796.41;2248270;78;51021;-78
2024/04/13 08:26:32;;;;;;;1.67;1.57;;;;;;;21.65;52.72;101795.39;2271530;78;50656;-77
2024/04/13 08:29:34;;;;;;;1.60;1.50;;;;;;;21.66;52.69;101802.47;2271646;77;51542;-77
2024/04/13 08:32:37;;;;;;;1.82;1.70;;;;;;;21.67;52.70;101796.89;2247919;77;51496;-77
2024/04/13 08:35:41;;;;;;;2.00;1.60;;;;;;;21.68;52.65;101794.55;2271232;78;50647;-77
2024/04/13 08:38:44;;;;;;;1.60;1.50;;;;;;;21.68;52.63;101792.34;2248203;78;51083;-77
2024/04/13 08:41:52;;;;;;;1.65;1.52;;;;;;;21.69;52.57;101795.38;2224060;78;51483;-77
2024/04/13 08:44:55;;;;;;;1.65;1.47;;;;;;;21.68;52.44;101805.32;2271861;77;50247;-76
2024/04/13 08:47:59;;;;;;;2.40;1.62;;;;;;;21.70;52.37;101794.35;2248127;78;50025;-78
2024/04/13 08:51:01;;;;;;;1.40;1.30;;;;;;;21.70;52.27;101797.05;2272087;77;22778;-78
2024/04/13 08:54:05;;;;;;;2.85;1.70;;;;;;;21.71;52.22;101804.13;2271980;77;51548;-78
2024/04/13 08:57:07;;;;;;;1.60;1.40;;;;;;;21.70;52.24;101793.84;2271735;78;51563;-78
2024/04/13 09:00:14;;;;;;;1.50;1.40;;;;;;;21.72;52.31;101800.41;2271731;78;50525;-77
2024/04/13 09:03:15;;;;;;;1.70;1.45;;;;;;;21.74;52.24;101792.48;2271338;78;22309;-77
2024/04/13 09:06:17;;;;;;;2.00;1.40;;;;;;;21.75;52.33;101795.50;2271596;78;51616;-77
2024/04/13 09:09:19;;;;;;;2.75;1.17;;;;;;;21.77;52.25;101798.55;2271572;78;51481;-77
2024/04/13 09:12:21;;;;;;;1.77;1.67;;;;;;;21.76;52.20;101789.63;2248050;77;52594;-77
2024/04/13 09:15:24;;;;;;;1.47;1.37;;;;;;;21.78;52.27;101791.61;2271390;77;50341;-78
2024/04/13 09:18:26;;;;;;;1.75;1.40;;;;;;;21.75;52.38;101785.23;2271937;77;50676;-78
2024/04/13 09:21:30;;;;;;;1.32;1.20;;;;;;;21.77;52.28;101781.86;2271827;78;51473;-78
2024/04/13 09:24:42;;;;;;;2.72;1.47;;;;;;;21.81;52.20;101781.85;2271830;77;50270;-78
2024/04/13 09:27:44;;;;;;;1.55;1.45;;;;;;;21.82;52.14;101774.09;2247843;78;50059;-78
2024/04/13 09:30:48;;;;;;;1.52;1.40;;;;;;;21.81;52.08;101762.13;2271522;77;51533;-76
2024/04/13 09:33:51;;;;;;;1.50;1.40;;;;;;;21.83;52.13;101769.02;2270939;78;51586;-77
2024/04/13 09:37:00;;;;;;;1.80;1.50;;;;;;;21.85;52.02;101760.25;2247918;78;50954;-77
2024/04/13 09:40:04;;;;;;;1.35;1.25;;;;;;;21.84;51.98;101754.55;2248896;78;22331;-78
2024/04/13 09:43:06;;;;;;;2.22;1.60;;;;;;;21.86;52.00;101746.27;2248268;78;52328;-78
2024/04/13 09:46:08;;;;;;;2.83;1.22;;;;;;;21.88;52.01;101749.63;2271638;78;51611;-78
2024/04/13 09:49:10;;;;;;;2.00;1.50;;;;;;;21.88;51.93;101732.95;2271886;78;51472;-78
2024/04/13 09:52:13;;;;;;;2.20;1.30;;;;;;;21.90;51.94;101736.31;2273548;78;49423;-77
2024/04/13 09:55:15;;;;;;;1.72;1.50;;;;;;;21.90;51.88;101734.96;2280992;77;50369;-77
2024/04/13 09:58:18;;;;;;;1.35;1.25;;;;;;;21.91;51.87;101739.84;2294504;77;50714;-77
2024/04/13 10:01:20;;;;;;;1.47;1.37;;;;;;;21.91;51.87;101733.09;2263647;77;49576;-77
2024/04/13 10:04:22;;;;;;;1.50;1.32;;;;;;;21.90;51.91;101728.23;2263841;77;50143;-78
2024/04/13 10:07:25;;;;;;;1.45;1.35;;;;;;;21.93;51.86;101740.50;2294306;77;50638;-77
2024/04/13 10:10:27;;;;;;;2.12;1.30;;;;;;;21.95;51.76;101733.92;2294377;77;51480;-77
2024/04/13 10:13:32;;;;;;;2.37;1.35;;;;;;;21.95;51.78;101736.61;2294397;77;51516;-78
2024/04/13 10:16:35;;;;;;;1.20;1.10;;;;;;;21.94;51.77;101719.30;2263296;77;51011;-76
2024/04/13 10:19:37;;;;;;;1.30;1.20;;;;;;;21.93;51.84;101723.82;2294601;77;51370;-77
2024/04/13 10:22:40;;;;;;;1.35;1.20;;;;;;;21.99;51.70;101726.81;2294371;77;51568;-77
2024/04/13 10:25:42;;;;;;;1.47;1.20;;;;;;;21.98;51.71;101711.67;2263093;77;50898;-77
2024/04/13 10:28:44;;;;;;;1.57;1.47;;;;;;;21.98;51.69;101709.81;2294056;77;51416;-77
2024/04/13 10:31:46;;;;;;;1.45;1.10;;;;;;;22.01;51.68;101708.62;2263594;77;50300;-77
2024/04/13 10:34:49;;;;;;;1.62;1.20;;;;;;;22.03;51.64;101713.33;2288567;77;50391;-77
2024/04/13 10:37:51;;;;;;;2.37;1.40;;;;;;;22.03;51.64;101705.23;2294136;77;51420;-77
2024/04/13 10:40:54;;;;;;;1.42;1.32;;;;;;;22.03;51.57;101706.59;2288451;77;52429;-77
2024/04/13 10:44:00;;;;;;;1.47;1.25;;;;;;;22.04;51.53;101698.33;2238988;77;51521;-77
2024/04/13 10:47:02;;;;;;;1.30;1.20;;;;;;;22.05;51.52;101694.61;2294333;77;51598;-77
2024/04/13 10:50:04;;;;;;;1.77;1.40;;;;;;;22.05;51.46;101689.22;2263534;77;50901;-77
2024/04/13 10:53:08;;;;;;;1.42;1.32;;;;;;;22.06;51.41;101687.35;2263835;77;51499;-77
2024/04/13 10:56:10;;;;;;;1.30;1.20;;;;;;;22.07;51.36;101685.00;2267799;77;50373;-77
2024/04/13 10:59:12;;;;;;;1.35;1.25;;;;;;;22.06;51.39;101691.39;2302305;77;50247;-77
2024/04/13 11:02:15;;;;;;;1.27;1.17;;;;;;;22.07;51.38;101693.09;2271371;77;50775;-76
2024/04/13 11:05:20;;;;;;;1.52;1.30;;;;;;;22.08;51.36;101688.02;2270730;77;50884;-77
2024/04/13 11:08:23;;;;;;;1.45;1.10;;;;;;;22.09;51.35;101691.03;2302171;77;50666;-77
2024/04/13 11:11:29;;;;;;;1.35;1.12;;;;;;;22.09;51.37;101692.38;2302208;77;50248;-77
2024/04/13 11:14:30;;;;;;;;;;;;;;;22.11;51.35;101684.95;2274009;77;50795;-77
2024/04/13 11:17:33;;;;;;;1.30;1.20;;;;;;;22.08;51.43;101686.67;2296948;76;51360;-78
2024/04/13 11:20:35;;;;;;;1.40;1.30;;;;;;;22.10;51.39;101682.77;2302224;77;51453;-77
2024/04/13 11:23:38;;;;;;;1.25;1.15;;;;;;;22.10;51.28;101666.60;2270887;77;51033;-78
2024/04/13 11:26:40;;;;;;;1.85;1.57;;;;;;;22.10;51.21;101669.81;2302045;77;51525;-78
2024/04/13 11:29:42;;;;;;;1.20;1.00;;;;;;;22.12;51.17;101674.52;2302240;76;51462;-78
2024/04/13 11:32:44;;;;;;;1.37;1.27;;;;;;;22.12;51.15;101673.17;2302381;77;51564;-78
2024/04/13 11:35:59;;;;;;;1.40;1.27;;;;;;;22.14;51.16;101657.63;2302128;77;50665;-77
2024/04/13 11:39:03;;;;;;;1.90;1.40;;;;;;;22.16;51.16;101654.25;2247366;77;50945;-77
2024/04/13 11:42:06;;;;;;;1.57;1.20;;;;;;;22.15;51.23;101657.45;2302075;77;50388;-77
2024/04/13 11:45:09;;;;;;;1.30;1.20;;;;;;;22.16;51.13;101643.47;2301915;77;50264;-78
2024/04/13 11:48:11;;;;;;;1.10;1.00;;;;;;;22.15;51.17;101633.72;2296963;77;51675;-77
2024/04/13 11:51:13;;;;;;;1.20;1.10;;;;;;;22.14;51.23;101634.23;2302344;77;51491;-77
2024/04/13 11:54:15;;;;;;;2.35;1.37;;;;;;;22.15;51.15;101631.84;2302344;77;51441;-77
2024/04/13 11:57:19;;;;;;;1.32;1.22;;;;;;;22.18;51.16;101640.08;2271174;77;51436;-78
2024/04/13 12:00:21;;;;;;;1.27;1.17;;;;;;;22.18;51.10;101626.60;2302182;77;50624;-77
2024/04/13 12:03:23;;;;;;;1.20;1.10;;;;;;;22.19;51.13;101636.38;2296862;77;50244;-77
2024/04/13 12:06:26;;;;;;;1.55;1.20;;;;;;;22.18;51.12;101631.99;2302031;77;50655;-77
2024/04/13 12:09:28;;;;;;;2.15;1.30;;;;;;;22.19;51.09;101632.34;2301964;77;51532;-77
2024/04/13 12:12:30;;;;;;;1.72;1.30;;;;;;;22.19;51.10;101628.30;2296687;76;49985;-77
2024/04/13 12:15:32;;;;;;;1.07;0.98;;;;;;;22.19;51.02;101622.91;2302099;77;51520;-78
2024/04/13 12:18:34;;;;;;;2.02;0.93;;;;;;;22.20;51.04;101603.55;2296864;76;53531;-77
2024/04/13 12:21:37;;;;;;;1.32;1.22;;;;;;;22.20;51.05;101612.47;2302251;76;51418;-78
2024/04/13 12:24:39;;;;;;;1.45;1.10;;;;;;;22.20;51.00;101607.08;2302306;77;50109;-78
2024/04/13 12:27:41;;;;;;;2.45;1.40;;;;;;;22.20;51.08;101611.12;2296498;76;49506;-78
2024/04/13 12:30:44;;;;;;;1.32;1.15;;;;;;;22.20;51.04;101602.20;2302222;77;50698;-78
2024/04/13 12:33:47;;;;;;;1.42;1.32;;;;;;;22.22;50.77;101605.04;2302303;76;51490;-78
2024/04/13 12:36:49;;;;;;;1.30;1.20;;;;;;;22.23;50.81;101608.56;2270912;77;50073;-78
2024/04/13 12:39:51;;;;;;;0.95;0.95;;;;;;;22.21;50.70;101607.39;2302180;77;51511;-78
2024/04/13 12:42:53;;;;;;;1.35;1.15;;;;;;;22.21;50.74;101603.34;2297833;76;53885;-78
2024/04/13 12:45:56;;;;;;;1.15;1.05;;;;;;;22.22;50.68;101595.61;2301918;77;51439;-77
2024/04/13 12:48:59;;;;;;;1.35;1.00;;;;;;;22.22;50.72;101598.30;2296934;76;51447;-78
2024/04/13 12:52:01;;;;;;;1.25;1.15;;;;;;;22.23;50.75;101590.53;2271069;77;51345;-78
2024/04/13 12:55:03;;;;;;;1.65;1.00;;;;;;;22.22;50.96;101589.34;2301943;77;51424;-78
2024/04/13 12:58:06;;;;;;;1.15;1.05;;;;;;;22.22;50.74;101573.17;2232254;77;50369;-78
2024/04/13 13:01:09;;;;;;;1.00;1.00;;;;;;;22.21;50.67;101575.55;2252518;77;52605;-78
2024/04/13 13:04:12;;;;;;;1.10;1.00;;;;;;;22.22;50.72;101577.22;2285699;77;50607;-78
2024/04/13 13:07:14;;;;;;;3.35;1.40;;;;;;;22.23;50.40;101565.44;2285177;77;50657;-78
2024/04/13 13:10:16;;;;;;;1.30;1.00;;;;;;;22.22;50.42;101559.20;2285437;77;50657;-78
2024/04/13 13:13:18;;;;;;;3.47;1.17;;;;;;;22.24;50.44;101561.70;2285375;77;51394;-78
2024/04/13 13:16:20;;;;;;;1.20;1.10;;;;;;;22.22;50.32;101552.47;2252536;77;50037;-78
2024/04/13 13:19:23;;;;;;;1.25;1.12;;;;;;;22.23;50.37;101546.56;2277944;77;50202;-78
2024/04/13 13:22:25;;;;;;;1.15;1.05;;;;;;;22.23;50.30;101547.39;2252735;77;51530;-78
2024/04/13 13:25:27;;;;;;;1.20;1.00;;;;;;;22.24;50.31;101542.31;2252503;77;49484;-78
2024/04/13 13:28:29;;;;;;;1.20;1.10;;;;;;;22.24;50.31;101532.88;2285710;77;50431;-77
2024/04/13 13:31:31;;;;;;;1.37;1.22;;;;;;;22.24;50.30;101531.53;2285583;77;50667;-78
2024/04/13 13:34:34;;;;;;;1.17;1.10;;;;;;;22.25;50.35;101532.39;2285471;77;51592;-77
2024/04/13 13:37:36;;;;;;;1.02;0.90;;;;;;;22.26;50.42;101532.19;2285218;77;51379;-77
2024/04/13 13:40:38;;;;;;;2.08;1.10;;;;;;;22.26;50.39;101516.02;2277684;76;49948;-77
2024/04/13 13:43:42;;;;;;;1.75;1.07;;;;;;;22.27;50.47;101510.97;2285554;77;51392;-77
2024/04/13 13:46:44;;;;;;;2.50;1.30;;;;;;;22.28;50.53;101518.02;2285470;77;50227;-77
2024/04/13 13:49:46;;;;;;;1.25;1.15;;;;;;;22.28;50.46;101506.40;2252990;77;50091;-77
2024/04/13 13:52:49;;;;;;;1.10;1.00;;;;;;;22.30;50.32;101514.63;2285654;77;51478;-77
2024/04/13 13:55:51;;;;;;;0.90;0.90;;;;;;;22.30;50.30;101501.15;2285226;77;50656;-78
2024/04/13 13:58:53;;;;;;;1.20;1.10;;;;;;;22.30;50.24;101498.94;2253553;77;51511;-78
2024/04/13 14:01:55;;;;;;;1.10;0.90;;;;;;;22.31;50.19;101490.67;2286185;77;50302;-78
2024/04/13 14:04:57;;;;;;;1.20;1.10;;;;;;;22.30;50.20;101480.92;2253484;77;50049;-76
2024/04/13 14:07:59;;;;;;;1.10;1.00;;;;;;;22.31;50.14;101489.33;2285950;77;50265;-77